Time;durP1;ratioP1;P1;durP2;ratioP2;P2;SDS_P1;SDS_P2;PMS_P1;PMS_P2;Temp;Humidity;BMP_temperature;BMP_pressure;BME280_temperature;BME280_humidity;BME280_pressure;Samples;Min_cycle;Max_cycle;Signal;HPM_P1;HPM_P2
2021/11/05 00:00:39;;;;;;;2.03;0.90;;;;;;;5.37;100.00;100565.59;4858146;29;20033;-80
2021/11/05 00:03:05;;;;;;;2.25;0.90;;;;;;;5.34;100.00;100568.59;4844469;29;20071;-79
2021/11/05 00:05:31;;;;;;;1.85;0.70;;;;;;;5.36;100.00;100560.41;4826932;29;20113;-79
2021/11/05 00:07:57;;;;;;;1.38;0.88;;;;;;;5.35;100.00;100558.75;4844367;29;20034;-80
2021/11/05 00:10:23;;;;;;;1.33;0.77;;;;;;;5.36;100.00;100584.44;4842334;29;20040;-79
2021/11/05 00:12:50;;;;;;;1.35;0.60;;;;;;;5.34;100.00;100567.78;4851246;29;20083;-79
2021/11/05 00:15:16;;;;;;;1.70;0.68;;;;;;;5.31;100.00;100560.94;4844169;29;20030;-78
2021/11/05 00:17:42;;;;;;;0.90;0.70;;;;;;;5.31;100.00;100568.94;4827079;29;20109;-79
2021/11/05 00:20:08;;;;;;;0.93;0.63;;;;;;;5.24;100.00;100567.97;4843827;29;20129;-80
2021/11/05 00:22:37;;;;;;;1.35;0.60;;;;;;;5.29;100.00;100560.25;4826533;29;20041;-79
2021/11/05 00:25:06;;;;;;;1.45;0.70;;;;;;;5.27;100.00;100564.13;4841023;29;20029;-80
2021/11/05 00:27:32;;;;;;;0.77;0.40;;;;;;;5.30;100.00;100561.13;4844088;29;20117;-80
2021/11/05 00:29:57;;;;;;;0.60;0.43;;;;;;;5.31;100.00;100563.59;4842934;29;20141;-79
2021/11/05 00:32:23;;;;;;;0.85;0.40;;;;;;;5.35;100.00;100566.75;4858103;29;20033;-79
2021/11/05 00:34:48;;;;;;;1.17;0.55;;;;;;;5.41;100.00;100569.59;4861633;29;20120;-80
2021/11/05 00:37:14;;;;;;;0.68;0.50;;;;;;;5.33;100.00;100564.28;4832390;29;20037;-80
2021/11/05 00:39:40;;;;;;;1.25;0.73;;;;;;;5.22;100.00;100534.44;4856726;29;20048;-79
2021/11/05 00:42:06;;;;;;;0.60;0.30;;;;;;;5.30;100.00;100547.78;4841952;29;20041;-79
2021/11/05 00:44:31;;;;;;;0.32;0.32;;;;;;;5.49;100.00;100565.22;4828071;29;20044;-80
2021/11/05 00:46:56;;;;;;;0.30;0.30;;;;;;;5.42;100.00;100562.41;4811809;29;20038;-80
2021/11/05 00:49:22;;;;;;;0.70;0.40;;;;;;;5.42;100.00;100549.06;4848234;29;20037;-80
2021/11/05 00:51:47;;;;;;;0.50;0.40;;;;;;;5.54;100.00;100557.53;4865466;29;20041;-79
2021/11/05 00:54:12;;;;;;;1.05;0.47;;;;;;;5.51;100.00;100572.06;4867720;29;20042;-79
2021/11/05 00:56:38;;;;;;;1.15;0.30;;;;;;;5.46;100.00;100562.88;4817324;29;20061;-79
2021/11/05 00:59:04;;;;;;;1.20;0.47;;;;;;;5.56;100.00;100558.19;4843641;29;20044;-79
2021/11/05 01:01:29;;;;;;;0.50;0.40;;;;;;;5.51;100.00;100556.03;4851146;29;20459;-80
2021/11/05 01:03:54;;;;;;;0.70;0.30;;;;;;;5.52;100.00;100571.03;4863190;29;20452;-80
2021/11/05 01:06:20;;;;;;;0.47;0.32;;;;;;;5.41;100.00;100548.25;4838801;29;20046;-80
2021/11/05 01:08:46;;;;;;;0.88;0.50;;;;;;;5.56;100.00;100559.03;4848014;29;20117;-79
2021/11/05 01:11:12;;;;;;;2.03;0.47;;;;;;;5.53;100.00;100547.84;4827712;29;20433;-79
2021/11/05 01:13:38;;;;;;;1.83;0.50;;;;;;;5.56;100.00;100559.03;4844661;29;20030;-79
2021/11/05 01:16:04;;;;;;;1.65;0.43;;;;;;;5.53;100.00;100547.84;4845290;29;20034;-79
2021/11/05 01:18:29;;;;;;;0.60;0.35;;;;;;;5.55;100.00;100553.84;4831282;29;20045;-80
2021/11/05 01:20:54;;;;;;;0.50;0.40;;;;;;;5.54;100.00;100550.38;4850084;29;20037;-79
2021/11/05 01:23:21;;;;;;;0.85;0.40;;;;;;;5.54;100.00;100561.03;4849869;29;20468;-80
2021/11/05 01:25:51;;;;;;;0.70;0.50;;;;;;;5.52;100.00;100564.88;4836732;29;20042;-80
2021/11/05 01:28:16;;;;;;;0.47;0.25;;;;;;;5.50;100.00;100565.06;4846239;29;20065;-79
2021/11/05 01:30:42;;;;;;;0.95;0.30;;;;;;;5.64;100.00;100567.00;4851839;29;20364;-79
2021/11/05 01:33:08;;;;;;;0.85;0.40;;;;;;;5.65;100.00;100566.00;4864967;29;20372;-79
2021/11/05 01:35:36;;;;;;;1.90;0.38;;;;;;;5.57;100.00;100579.38;4861348;29;20487;-80
2021/11/05 01:38:03;;;;;;;0.65;0.50;;;;;;;5.74;100.00;100558.78;4863372;29;20053;-79
2021/11/05 01:40:28;;;;;;;2.28;0.40;;;;;;;5.77;100.00;100570.97;4879849;29;20033;-79
2021/11/05 01:42:55;;;;;;;0.70;0.40;;;;;;;5.73;100.00;100551.78;4864897;29;20041;-79
2021/11/05 01:45:21;;;;;;;0.90;0.40;;;;;;;5.74;100.00;100552.63;4849484;29;20040;-79
2021/11/05 01:47:47;;;;;;;1.20;0.40;;;;;;;5.64;100.00;100555.50;4833621;29;20038;-79
2021/11/05 01:50:13;;;;;;;1.95;0.40;;;;;;;5.83;100.00;100559.59;4845925;29;20062;-79
2021/11/05 01:52:40;;;;;;;0.30;0.30;;;;;;;5.73;100.00;100572.28;4844702;29;20037;-79
2021/11/05 01:55:06;;;;;;;1.05;0.50;;;;;;;5.78;100.00;100564.63;4846244;29;20122;-79
2021/11/05 01:57:32;;;;;;;0.93;0.47;;;;;;;5.73;100.00;100565.16;4847152;29;20058;-80
2021/11/05 01:59:57;;;;;;;0.95;0.40;;;;;;;5.76;100.00;100564.81;4832139;29;20041;-80
2021/11/05 02:02:22;;;;;;;0.88;0.40;;;;;;;5.79;100.00;100560.94;4858675;29;20038;-79
2021/11/05 02:04:48;;;;;;;0.32;0.30;;;;;;;5.82;100.00;100560.59;4819522;29;20068;-79
2021/11/05 02:07:14;;;;;;;0.20;0.20;;;;;;;5.59;100.00;100539.97;4850669;29;20046;-80
2021/11/05 02:09:43;;;;;;;0.43;0.20;;;;;;;5.76;99.75;100587.97;4828715;29;20091;-79
2021/11/05 02:12:09;;;;;;;2.00;0.38;;;;;;;5.38;99.34;100519.22;4846869;29;20053;-80
2021/11/05 02:14:34;;;;;;;0.60;0.35;;;;;;;5.77;99.90;100571.78;4838291;29;20030;-79
2021/11/05 02:17:03;;;;;;;0.32;0.30;;;;;;;5.60;99.66;100563.03;4845692;29;20089;-79
2021/11/05 02:19:31;;;;;;;0.80;0.30;;;;;;;5.70;99.71;100578.84;4863709;29;20468;-79
2021/11/05 02:21:57;;;;;;;3.20;0.40;;;;;;;5.65;99.54;100579.34;4821315;29;20045;-80
2021/11/05 02:24:25;;;;;;;0.22;0.20;;;;;;;5.69;100.00;100587.84;4849555;29;20037;-80
2021/11/05 02:26:52;;;;;;;0.57;0.30;;;;;;;5.63;100.00;100592.03;4837864;29;20038;-79
2021/11/05 02:29:18;;;;;;;0.40;0.30;;;;;;;5.68;100.00;100590.69;4829435;29;20058;-79
2021/11/05 02:31:44;;;;;;;1.30;0.20;;;;;;;5.67;98.78;100562.34;4843550;29;20025;-79
2021/11/05 02:34:10;;;;;;;0.30;0.30;;;;;;;5.80;98.60;100576.78;4828671;29;20098;-79
2021/11/05 02:36:35;;;;;;;0.40;0.40;;;;;;;5.82;99.18;100589.94;4843906;29;20047;-79
2021/11/05 02:39:07;;;;;;;0.30;0.22;;;;;;;5.74;99.30;100592.66;4844599;29;20030;-79
2021/11/05 02:41:41;;;;;;;0.60;0.30;;;;;;;5.62;98.31;100582.34;4845084;29;20030;-80
2021/11/05 02:44:07;;;;;;;2.95;0.30;;;;;;;5.61;99.02;100596.72;4828971;29;20091;-79
2021/11/05 02:46:33;;;;;;;0.20;0.20;;;;;;;5.59;100.00;100592.53;4859257;29;20038;-80
2021/11/05 02:49:00;;;;;;;0.13;0.13;;;;;;;5.59;100.00;100577.34;4828662;29;20034;-80
2021/11/05 02:51:27;;;;;;;0.73;0.30;;;;;;;5.72;100.00;100595.50;4856991;29;20029;-80
2021/11/05 02:53:55;;;;;;;1.40;0.30;;;;;;;5.73;100.00;100586.50;4864300;29;20029;-79
2021/11/05 02:56:23;;;;;;;0.25;0.25;;;;;;;5.57;100.00;100584.72;4851096;29;20060;-79
2021/11/05 02:58:49;;;;;;;0.43;0.30;;;;;;;5.65;99.16;100586.50;4844045;29;20065;-79
2021/11/05 03:01:14;;;;;;;0.20;0.20;;;;;;;5.70;98.69;100594.03;4842753;29;20025;-79
2021/11/05 03:03:40;;;;;;;0.80;0.30;;;;;;;5.55;98.58;100592.06;4847186;29;20034;-79
2021/11/05 03:06:05;;;;;;;0.30;0.30;;;;;;;5.64;99.34;100590.19;4844424;29;20057;-79
2021/11/05 03:08:31;;;;;;;0.30;0.30;;;;;;;5.60;99.84;100584.38;4845052;29;20125;-80
2021/11/05 03:10:56;;;;;;;1.52;0.30;;;;;;;5.62;99.29;100595.69;4847087;29;20102;-79
2021/11/05 03:13:22;;;;;;;0.45;0.30;;;;;;;5.62;99.92;100582.34;4854885;29;20029;-79
2021/11/05 03:15:47;;;;;;;0.57;0.30;;;;;;;5.48;99.70;100567.06;4867463;29;20038;-80
2021/11/05 03:18:16;;;;;;;0.63;0.28;;;;;;;5.52;99.37;100596.91;4859627;29;20129;-80
2021/11/05 03:20:41;;;;;;;0.30;0.30;;;;;;;5.47;100.00;100593.94;4865960;29;20053;-79
2021/11/05 03:23:07;;;;;;;0.25;0.25;;;;;;;5.44;100.00;100597.78;4864563;29;20048;-79
2021/11/05 03:25:33;;;;;;;0.30;0.20;;;;;;;5.40;100.00;100597.28;4862991;29;20577;-79
2021/11/05 03:27:58;;;;;;;0.40;0.30;;;;;;;5.41;100.00;100577.59;4873556;29;20065;-80
2021/11/05 03:30:24;;;;;;;0.35;0.30;;;;;;;5.56;100.00;100583.06;4876904;29;20025;-80
2021/11/05 03:32:49;;;;;;;0.38;0.30;;;;;;;5.50;100.00;100594.41;4863630;29;20033;-80
2021/11/05 03:35:15;;;;;;;0.50;0.30;;;;;;;5.41;100.00;100590.09;4863754;29;20037;-80
2021/11/05 03:37:42;;;;;;;0.75;0.40;;;;;;;5.36;100.00;100581.75;4851051;29;20026;-79
2021/11/05 03:40:09;;;;;;;0.73;0.30;;;;;;;5.37;100.00;100581.59;4819755;29;20030;-79
2021/11/05 03:42:36;;;;;;;0.45;0.28;;;;;;;5.36;100.00;100593.28;4845811;29;20041;-80
2021/11/05 03:45:02;;;;;;;0.45;0.30;;;;;;;5.36;100.00;100579.94;4845049;29;20040;-79
2021/11/05 03:47:28;;;;;;;0.35;0.20;;;;;;;5.44;100.00;100576.41;4829010;29;20129;-79
2021/11/05 03:49:53;;;;;;;0.45;0.30;;;;;;;5.47;100.00;100580.59;4845997;29;20435;-79
2021/11/05 03:52:19;;;;;;;0.40;0.20;;;;;;;5.18;100.00;100555.31;4828258;29;20034;-79
2021/11/05 03:54:45;;;;;;;1.05;0.20;;;;;;;5.40;100.00;100580.44;4811104;29;20034;-79
2021/11/05 03:57:10;;;;;;;0.50;0.30;;;;;;;5.35;100.00;100577.44;4844558;29;20141;-79
2021/11/05 03:59:36;;;;;;;0.20;0.20;;;;;;;5.33;100.00;100582.97;4843990;29;20044;-79
2021/11/05 04:02:02;;;;;;;0.98;0.30;;;;;;;5.34;100.00;100565.94;4848034;29;20320;-81
2021/11/05 04:04:28;;;;;;;0.73;0.30;;;;;;;5.48;100.00;100575.06;4858054;29;20054;-79
2021/11/05 04:06:54;;;;;;;0.40;0.30;;;;;;;5.44;100.00;100587.09;4862138;29;20039;-80
2021/11/05 04:09:20;;;;;;;0.30;0.30;;;;;;;5.37;100.00;100575.44;4852790;29;20093;-80
2021/11/05 04:11:45;;;;;;;0.40;0.30;;;;;;;5.46;100.00;100584.25;4844216;29;20042;-81
2021/11/05 04:14:11;;;;;;;0.30;0.30;;;;;;;5.29;100.00;100584.28;4827197;29;20376;-80
2021/11/05 04:16:36;;;;;;;1.08;0.25;;;;;;;5.27;100.00;100572.13;4852662;29;20074;-80
2021/11/05 04:19:03;;;;;;;0.95;0.30;;;;;;;5.38;100.00;100567.25;4863346;29;20037;-80
2021/11/05 04:21:29;;;;;;;0.70;0.30;;;;;;;5.36;100.00;100571.94;4858779;29;20109;-80
2021/11/05 04:23:55;;;;;;;0.30;0.20;;;;;;;5.46;100.00;100569.06;4864243;29;20444;-81
2021/11/05 04:26:20;;;;;;;0.20;0.20;;;;;;;5.47;100.00;100578.75;4846759;29;20041;-79
2021/11/05 04:28:46;;;;;;;0.40;0.40;;;;;;;5.40;100.00;100564.44;4832320;29;20048;-80
2021/11/05 04:31:12;;;;;;;0.40;0.30;;;;;;;5.36;100.00;100576.44;4840417;29;20106;-81
2021/11/05 04:33:38;;;;;;;0.50;0.35;;;;;;;5.45;100.00;100586.09;4867954;29;20081;-80
2021/11/05 04:36:05;;;;;;;0.65;0.30;;;;;;;5.37;100.00;100570.09;4870292;29;20105;-80
2021/11/05 04:38:30;;;;;;;0.40;0.30;;;;;;;5.26;100.00;100557.09;4848566;29;20361;-80
2021/11/05 04:40:57;;;;;;;0.60;0.30;;;;;;;5.45;100.00;100594.09;4843640;29;20029;-79
2021/11/05 04:43:23;;;;;;;0.35;0.30;;;;;;;5.37;100.00;100594.13;4842470;29;20049;-80
2021/11/05 04:45:48;;;;;;;0.30;0.30;;;;;;;5.45;100.00;100590.59;4827230;29;20133;-80
2021/11/05 04:48:15;;;;;;;1.48;0.40;;;;;;;5.48;100.00;100600.94;4825802;29;20026;-80
2021/11/05 04:50:41;;;;;;;0.30;0.30;;;;;;;5.42;100.00;100584.56;4844362;29;20061;-80
2021/11/05 04:53:07;;;;;;;1.17;0.32;;;;;;;5.47;100.00;100594.75;4843576;29;20460;-80
2021/11/05 04:55:33;;;;;;;0.55;0.40;;;;;;;5.53;100.00;100591.41;4850740;29;20041;-80
2021/11/05 04:57:59;;;;;;;1.38;0.30;;;;;;;5.49;100.00;100592.72;4843605;29;20077;-80
2021/11/05 05:00:26;;;;;;;0.98;0.30;;;;;;;5.47;100.00;100601.94;4853688;29;20082;-80
2021/11/05 05:02:52;;;;;;;1.42;0.52;;;;;;;5.44;100.00;100592.44;4858887;29;20114;-80
2021/11/05 05:05:18;;;;;;;0.63;0.20;;;;;;;5.39;100.00;100589.44;4861728;29;20042;-79
2021/11/05 05:07:45;;;;;;;0.22;0.22;;;;;;;5.42;100.00;100621.94;4856439;29;20057;-80
2021/11/05 05:10:11;;;;;;;0.80;0.30;;;;;;;5.38;100.00;100614.44;4835708;29;20036;-80
2021/11/05 05:12:37;;;;;;;0.55;0.40;;;;;;;5.43;100.00;100620.13;4842752;29;20030;-80
2021/11/05 05:15:05;;;;;;;0.28;0.28;;;;;;;5.30;100.00;100606.47;4829051;29;20034;-80
2021/11/05 05:17:37;;;;;;;0.55;0.38;;;;;;;5.33;100.00;100630.13;4843855;29;20021;-79
2021/11/05 05:20:06;;;;;;;0.60;0.40;;;;;;;5.42;100.00;100629.13;4825449;29;20026;-80
2021/11/05 05:22:32;;;;;;;1.23;0.35;;;;;;;5.33;100.00;100635.47;4857473;29;20093;-80
2021/11/05 05:24:58;;;;;;;1.02;0.20;;;;;;;5.49;100.00;100627.44;4857644;29;20065;-80
2021/11/05 05:27:23;;;;;;;1.02;0.40;;;;;;;5.15;99.65;100576.97;4814760;29;20049;-80
2021/11/05 05:29:50;;;;;;;0.50;0.40;;;;;;;5.51;100.00;100640.63;4844486;29;20044;-79
2021/11/05 05:32:15;;;;;;;0.47;0.30;;;;;;;5.39;100.00;100659.63;4847739;29;20034;-80
2021/11/05 05:34:41;;;;;;;0.60;0.40;;;;;;;5.36;100.00;100648.47;4828801;29;20034;-80
2021/11/05 05:37:06;;;;;;;2.15;0.30;;;;;;;5.18;100.00;100649.50;4841182;29;20385;-81
2021/11/05 05:39:33;;;;;;;0.70;0.40;;;;;;;5.16;100.00;100655.97;4845219;29;20056;-81
2021/11/05 05:41:58;;;;;;;0.85;0.52;;;;;;;5.12;100.00;100644.81;4843302;29;20030;-81
2021/11/05 05:44:24;;;;;;;0.40;0.30;;;;;;;5.06;100.00;100648.16;4846733;29;20070;-81
2021/11/05 05:46:49;;;;;;;0.40;0.40;;;;;;;5.17;100.00;100653.16;4846302;29;20361;-81
2021/11/05 05:49:15;;;;;;;0.40;0.30;;;;;;;5.14;100.00;100650.00;4827176;29;20052;-80
2021/11/05 05:51:40;;;;;;;0.75;0.40;;;;;;;5.21;100.00;100677.66;4828510;29;20026;-80
2021/11/05 05:54:06;;;;;;;0.50;0.40;;;;;;;5.14;100.00;100671.34;4833000;29;20045;-81
2021/11/05 05:56:31;;;;;;;0.60;0.30;;;;;;;5.08;100.00;100669.34;4855677;29;20025;-80
2021/11/05 05:58:57;;;;;;;0.75;0.40;;;;;;;5.17;100.00;100682.50;4848473;29;20044;-80
2021/11/05 06:01:22;;;;;;;1.38;0.55;;;;;;;5.14;100.00;100658.84;4867786;29;20125;-81
2021/11/05 06:03:48;;;;;;;2.58;0.30;;;;;;;5.32;100.00;100679.16;4862185;29;20063;-81
2021/11/05 06:06:13;;;;;;;0.55;0.40;;;;;;;5.31;100.00;100683.66;4832521;29;20038;-79
2021/11/05 06:08:40;;;;;;;1.05;0.40;;;;;;;5.34;100.00;100686.00;4827898;29;20485;-80
2021/11/05 06:11:06;;;;;;;0.63;0.40;;;;;;;5.45;100.00;100692.00;4843193;29;20174;-79
2021/11/05 06:13:32;;;;;;;0.35;0.30;;;;;;;5.34;100.00;100671.84;4854493;29;20050;-80
2021/11/05 06:15:59;;;;;;;0.63;0.40;;;;;;;5.42;100.00;100695.81;4846207;29;20040;-80
2021/11/05 06:18:25;;;;;;;1.65;0.40;;;;;;;5.38;100.00;100690.00;4829068;29;20126;-79
2021/11/05 06:20:51;;;;;;;0.75;0.40;;;;;;;5.36;100.00;100701.81;4844121;29;20097;-80
2021/11/05 06:23:16;;;;;;;0.63;0.43;;;;;;;5.38;100.00;100699.84;4864141;29;20515;-79
2021/11/05 06:25:43;;;;;;;3.63;0.50;;;;;;;5.35;100.00;100701.00;4860344;29;20057;-79
2021/11/05 06:28:09;;;;;;;0.50;0.43;;;;;;;5.30;100.00;100692.69;4829758;29;20045;-80
2021/11/05 06:30:34;;;;;;;0.70;0.50;;;;;;;5.39;100.00;100701.50;4844780;29;20452;-79
2021/11/05 06:33:01;;;;;;;0.73;0.52;;;;;;;5.45;100.00;100700.81;4828517;29;20049;-79
2021/11/05 06:35:28;;;;;;;0.50;0.40;;;;;;;5.49;100.00;100696.81;4842836;29;20061;-79
2021/11/05 06:37:55;;;;;;;2.38;0.30;;;;;;;5.41;100.00;100694.16;4844508;29;20079;-79
2021/11/05 06:40:20;;;;;;;2.75;0.38;;;;;;;5.35;100.00;100697.50;4842933;29;20037;-79
2021/11/05 06:42:46;;;;;;;0.98;0.50;;;;;;;5.30;100.00;100702.53;4850613;29;20123;-80
2021/11/05 06:45:12;;;;;;;3.08;0.40;;;;;;;5.27;100.00;100698.34;4871789;29;20057;-79
2021/11/05 06:47:38;;;;;;;0.90;0.60;;;;;;;5.31;100.00;100706.84;4859083;29;20026;-79
2021/11/05 06:50:05;;;;;;;0.77;0.60;;;;;;;5.26;100.00;100706.50;4844470;29;20026;-79
2021/11/05 06:52:31;;;;;;;0.70;0.50;;;;;;;5.37;100.00;100719.53;4844630;29;20113;-79
2021/11/05 06:54:57;;;;;;;0.60;0.60;;;;;;;5.32;99.81;100711.19;4843813;29;20552;-79
2021/11/05 06:57:23;;;;;;;2.15;0.50;;;;;;;5.33;99.56;100711.03;4844542;29;20066;-79
2021/11/05 06:59:48;;;;;;;0.50;0.40;;;;;;;5.33;99.31;100707.50;4847117;29;20094;-80
2021/11/05 07:02:14;;;;;;;0.73;0.55;;;;;;;5.42;99.75;100720.66;4865346;29;20036;-80
2021/11/05 07:04:39;;;;;;;2.38;0.50;;;;;;;5.46;99.82;100721.16;4866667;29;20029;-79
2021/11/05 07:07:05;;;;;;;0.60;0.50;;;;;;;5.48;99.05;100721.84;4864040;29;20178;-79
2021/11/05 07:09:31;;;;;;;0.40;0.38;;;;;;;5.50;98.89;100727.03;4850346;29;20462;-79
2021/11/05 07:11:56;;;;;;;0.40;0.40;;;;;;;5.52;99.02;100725.84;4831049;29;20077;-79
2021/11/05 07:14:21;;;;;;;1.38;0.55;;;;;;;5.53;99.42;100722.19;4853849;29;20057;-79
2021/11/05 07:16:47;;;;;;;0.60;0.45;;;;;;;5.51;99.34;100713.50;4845090;29;20057;-79
2021/11/05 07:19:12;;;;;;;0.45;0.30;;;;;;;5.42;99.57;100703.81;4827165;29;20101;-79
2021/11/05 07:21:38;;;;;;;0.63;0.50;;;;;;;5.35;99.44;100701.00;4841919;29;20029;-80
2021/11/05 07:24:04;;;;;;;0.52;0.40;;;;;;;5.47;99.93;100724.69;4826765;29;20038;-79
2021/11/05 07:26:37;;;;;;;0.90;0.57;;;;;;;5.53;99.81;100735.53;4826733;29;20415;-79
2021/11/05 07:29:04;;;;;;;0.60;0.50;;;;;;;5.55;100.00;100738.00;4826643;29;20438;-79
2021/11/05 07:31:30;;;;;;;0.90;0.55;;;;;;;5.63;99.79;100738.03;4814381;29;20038;-79
2021/11/05 07:33:56;;;;;;;0.70;0.60;;;;;;;5.68;100.00;100738.34;4813241;29;20098;-79
2021/11/05 07:36:21;;;;;;;1.00;0.50;;;;;;;5.71;100.00;100751.34;4828837;29;20053;-79
2021/11/05 07:38:46;;;;;;;0.65;0.50;;;;;;;5.74;100.00;100743.00;4843526;29;20045;-79
2021/11/05 07:41:12;;;;;;;0.90;0.50;;;;;;;5.79;100.00;100745.16;4844607;29;20040;-79
2021/11/05 07:43:37;;;;;;;1.67;0.63;;;;;;;5.84;100.00;100750.84;4846216;29;20168;-79
2021/11/05 07:46:04;;;;;;;1.23;0.50;;;;;;;5.89;100.00;100748.47;4850310;29;20093;-80
2021/11/05 07:48:30;;;;;;;0.88;0.60;;;;;;;5.92;100.00;100744.63;4846705;29;20041;-79
2021/11/05 07:50:55;;;;;;;0.73;0.57;;;;;;;5.94;100.00;100748.00;4827152;29;20041;-79
2021/11/05 07:53:21;;;;;;;0.85;0.70;;;;;;;6.00;100.00;100747.34;4844278;29;20081;-79
2021/11/05 07:55:47;;;;;;;0.93;0.63;;;;;;;6.01;99.79;100749.81;4826303;29;20030;-79
2021/11/05 07:58:13;;;;;;;0.95;0.60;;;;;;;6.02;99.41;100734.63;4862373;29;20493;-79
2021/11/05 08:00:38;;;;;;;1.13;0.60;;;;;;;6.02;99.67;100738.13;4861051;29;20380;-80
2021/11/05 08:03:04;;;;;;;1.83;0.60;;;;;;;6.01;99.18;100732.97;4862534;29;20033;-80
2021/11/05 08:05:29;;;;;;;2.05;0.70;;;;;;;5.99;99.08;100735.78;4827721;29;20030;-79
2021/11/05 08:07:55;;;;;;;1.15;0.70;;;;;;;6.02;99.06;100740.81;4865532;29;20037;-80
2021/11/05 08:10:20;;;;;;;0.68;0.60;;;;;;;5.99;98.53;100724.28;4848899;29;20025;-79
2021/11/05 08:12:51;;;;;;;2.05;0.70;;;;;;;6.16;98.69;100747.28;4855716;29;20095;-79
2021/11/05 08:15:22;;;;;;;0.80;0.60;;;;;;;6.19;98.06;100746.09;4847021;29;20102;-79
2021/11/05 08:17:48;;;;;;;1.65;0.70;;;;;;;6.12;98.67;100740.59;4860233;29;20040;-79
2021/11/05 08:20:14;;;;;;;0.93;0.65;;;;;;;6.18;98.30;100757.78;4861896;29;20037;-79
2021/11/05 08:22:41;;;;;;;0.70;0.60;;;;;;;6.17;98.33;100756.97;4859243;29;20430;-79
2021/11/05 08:25:07;;;;;;;1.08;0.60;;;;;;;6.21;98.49;100760.97;4861229;29;20119;-79
2021/11/05 08:27:34;;;;;;;1.98;0.60;;;;;;;6.21;98.38;100771.66;4858039;29;20029;-79
2021/11/05 08:30:00;;;;;;;0.85;0.65;;;;;;;6.19;98.52;100767.47;4860460;29;20038;-79
2021/11/05 08:32:26;;;;;;;1.13;0.60;;;;;;;6.18;98.27;100760.47;4844716;29;20108;-79
2021/11/05 08:34:51;;;;;;;0.90;0.50;;;;;;;6.17;98.71;100764.97;4834431;29;20125;-79
2021/11/05 08:37:18;;;;;;;1.25;0.73;;;;;;;6.12;99.00;100767.31;4827168;29;20121;-79
2021/11/05 08:39:44;;;;;;;1.67;0.70;;;;;;;6.09;98.90;100768.53;4841093;29;20049;-79
2021/11/05 08:42:09;;;;;;;1.15;0.68;;;;;;;5.98;98.85;100742.16;4842101;29;20034;-79
2021/11/05 08:44:34;;;;;;;1.13;0.73;;;;;;;6.13;98.86;100758.31;4843509;29;20037;-79
2021/11/05 08:47:02;;;;;;;1.38;0.63;;;;;;;6.13;99.14;100758.31;4842934;29;20443;-79
2021/11/05 08:49:27;;;;;;;1.90;0.75;;;;;;;5.85;98.72;100710.59;4842446;29;20080;-79
2021/11/05 08:51:54;;;;;;;1.83;0.80;;;;;;;6.18;98.60;100750.63;4861546;29;20065;-79
2021/11/05 08:54:20;;;;;;;2.20;0.60;;;;;;;6.21;98.90;100755.63;4831318;29;20128;-79
2021/11/05 08:56:45;;;;;;;1.15;0.75;;;;;;;6.24;98.58;100749.09;4864714;29;20033;-79
2021/11/05 08:59:13;;;;;;;2.13;0.80;;;;;;;6.26;98.41;100747.94;4851086;29;20101;-79
2021/11/05 09:01:39;;;;;;;1.75;1.20;;;;;;;6.24;98.17;100747.25;4827464;29;20030;-79
2021/11/05 09:04:06;;;;;;;4.53;0.90;;;;;;;6.20;98.12;100742.44;4826689;29;20167;-79
2021/11/05 09:06:31;;;;;;;2.45;0.90;;;;;;;6.04;98.15;100733.47;4842172;29;20101;-79
2021/11/05 09:08:59;;;;;;;2.00;0.80;;;;;;;6.15;98.41;100748.28;4843266;29;20469;-79
2021/11/05 09:11:25;;;;;;;3.58;0.80;;;;;;;6.10;98.44;100738.13;4841996;29;20030;-79
2021/11/05 09:13:51;;;;;;;3.33;0.90;;;;;;;6.20;98.30;100742.44;4842374;29;20119;-79
2021/11/05 09:16:16;;;;;;;4.63;1.00;;;;;;;6.31;98.07;100731.38;4842587;29;20124;-79
2021/11/05 09:18:42;;;;;;;9.52;1.00;;;;;;;6.51;97.56;100734.44;4832335;29;20064;-79
2021/11/05 09:21:07;;;;;;;9.55;1.20;;;;;;;6.65;97.20;100728.34;4862377;29;20038;-80
2021/11/05 09:23:34;;;;;;;6.20;1.15;;;;;;;6.79;96.82;100734.81;4846397;29;20029;-79
2021/11/05 09:26:00;;;;;;;6.25;1.10;;;;;;;6.78;97.07;100717.91;4830837;29;20030;-79
2021/11/05 09:28:25;;;;;;;6.35;1.20;;;;;;;6.85;96.62;100720.72;4842040;29;20045;-79
2021/11/05 09:30:51;;;;;;;3.03;1.02;;;;;;;6.92;96.83;100727.06;4841563;29;20150;-79
2021/11/05 09:33:19;;;;;;;3.67;0.80;;;;;;;6.95;96.88;100715.13;4827624;29;20034;-79
2021/11/05 09:35:46;;;;;;;3.30;1.00;;;;;;;7.04;96.80;100722.94;4842553;29;20100;-79
2021/11/05 09:38:13;;;;;;;3.28;0.90;;;;;;;7.11;96.55;100708.84;4827949;29;20120;-79
2021/11/05 09:40:39;;;;;;;3.13;0.90;;;;;;;7.22;96.12;100719.16;4826156;29;20438;-79
2021/11/05 09:43:05;;;;;;;1.90;1.00;;;;;;;7.13;96.00;100682.75;4828131;29;20036;-79
2021/11/05 09:45:31;;;;;;;1.48;0.80;;;;;;;7.36;96.09;100717.53;4829535;29;20038;-79
2021/11/05 09:47:58;;;;;;;2.35;0.70;;;;;;;7.32;96.20;100702.81;4844883;29;20053;-79
2021/11/05 09:50:23;;;;;;;2.60;0.88;;;;;;;7.46;96.18;100718.94;4854379;29;20093;-79
2021/11/05 09:52:49;;;;;;;1.77;0.65;;;;;;;7.57;95.81;100730.22;4864613;29;20034;-79
2021/11/05 09:55:16;;;;;;;3.25;0.90;;;;;;;7.54;95.66;100718.84;4863848;29;20406;-79
2021/11/05 09:57:42;;;;;;;1.85;0.60;;;;;;;7.63;95.85;100718.78;4864505;29;20049;-79
2021/11/05 10:00:10;;;;;;;3.47;0.73;;;;;;;7.67;96.14;100720.09;4859957;29;20034;-79
2021/11/05 10:02:35;;;;;;;1.20;1.00;;;;;;;7.69;96.03;100728.78;4855258;29;20037;-79
2021/11/05 10:05:03;;;;;;;1.50;0.73;;;;;;;7.65;96.20;100716.75;4864193;29;20041;-79
2021/11/05 10:07:29;;;;;;;1.70;0.80;;;;;;;7.61;96.19;100723.47;4876084;29;20532;-79
2021/11/05 10:09:56;;;;;;;1.02;0.80;;;;;;;7.58;96.39;100716.63;4830901;29;20125;-79
2021/11/05 10:12:25;;;;;;;2.95;0.70;;;;;;;7.41;96.43;100696.38;4834020;29;20030;-79
2021/11/05 10:15:00;;;;;;;2.75;0.90;;;;;;;7.54;96.59;100724.22;4847732;29;20081;-79
2021/11/05 10:17:26;;;;;;;1.40;0.80;;;;;;;7.56;96.67;100718.69;4867561;29;20097;-79
2021/11/05 10:20:02;;;;;;;1.75;0.68;;;;;;;7.52;96.89;100718.22;4853406;29;20457;-79
2021/11/05 10:22:47;;;;;;;1.42;0.52;;;;;;;7.54;96.42;100721.53;4861142;29;20037;-79
2021/11/05 10:25:33;;;;;;;1.50;0.60;;;;;;;7.65;97.02;100727.44;4862827;29;20036;-79
2021/11/05 10:28:09;;;;;;;1.20;0.70;;;;;;;7.71;96.91;100727.56;4829254;29;20465;-79
2021/11/05 10:30:58;;;;;;;0.73;0.50;;;;;;;7.79;96.62;100724.00;4826628;29;20080;-79
2021/11/05 10:33:35;;;;;;;0.95;0.60;;;;;;;7.94;96.68;100732.84;4841511;29;20129;-79
2021/11/05 10:36:04;;;;;;;1.75;0.50;;;;;;;8.11;96.09;100732.69;4855750;29;20025;-79
2021/11/05 10:38:31;;;;;;;1.05;0.60;;;;;;;8.28;96.86;100738.69;4862919;29;20049;-80
2021/11/05 10:41:00;;;;;;;1.60;0.55;;;;;;;8.31;96.87;100741.84;4865786;29;20034;-79
2021/11/05 10:43:51;;;;;;;2.00;0.57;;;;;;;8.34;96.80;100737.94;4863376;29;20333;-79
2021/11/05 10:46:39;;;;;;;3.63;0.60;;;;;;;8.38;97.00;100740.13;4833577;29;20079;-80
2021/11/05 10:49:25;;;;;;;1.10;0.52;;;;;;;8.51;97.28;100739.47;4796746;29;20064;-79
2021/11/05 10:51:51;;;;;;;1.58;0.77;;;;;;;8.55;96.82;100734.56;4826774;29;20027;-79
2021/11/05 10:54:16;;;;;;;2.17;0.52;;;;;;;8.62;96.41;100748.88;4844982;29;20349;-79
2021/11/05 10:56:43;;;;;;;1.83;0.30;;;;;;;8.68;93.27;100745.44;4844391;29;20069;-79
2021/11/05 10:59:11;;;;;;;2.45;0.63;;;;;;;8.84;89.49;100745.22;4827132;29;20029;-79
2021/11/05 11:01:42;;;;;;;2.92;0.32;;;;;;;8.88;87.49;100725.03;4843546;29;20449;-79
2021/11/05 11:04:12;;;;;;;0.80;0.20;;;;;;;9.06;85.66;100745.22;4845090;29;20103;-79
2021/11/05 11:06:43;;;;;;;2.83;0.40;;;;;;;9.14;85.58;100747.81;4844416;29;20034;-80
2021/11/05 11:09:14;;;;;;;0.40;0.20;;;;;;;9.15;85.84;100736.03;4845239;29;20090;-79
2021/11/05 11:11:45;;;;;;;3.30;0.20;;;;;;;9.14;86.88;100720.97;4846575;29;20064;-79
2021/11/05 11:14:16;;;;;;;2.20;0.40;;;;;;;9.28;87.89;100724.59;4833192;29;20030;-79
2021/11/05 11:16:48;;;;;;;1.40;0.13;;;;;;;9.36;88.31;100732.50;4830912;29;20532;-80
2021/11/05 11:19:19;;;;;;;2.60;0.30;;;;;;;9.37;87.96;100736.84;4839516;29;20349;-80
2021/11/05 11:21:55;;;;;;;4.15;0.50;;;;;;;9.37;88.19;100732.34;4825803;29;20038;-79
2021/11/05 11:24:23;;;;;;;4.63;0.28;;;;;;;9.45;88.28;100728.66;4831235;29;20056;-80
2021/11/05 11:26:50;;;;;;;0.65;0.20;;;;;;;9.48;87.82;100735.53;4858398;29;20113;-79